sensor_id;sensor_type;location;lat;lon;timestamp;P1;durP1;ratioP1;P2;durP2;ratioP2
35243;SDS011;37916;52.160;21.066;2023-02-12T00:04:27;4.20;;;1.70;;
35243;SDS011;37916;52.160;21.066;2023-02-12T00:14:27;2.28;;;0.90;;
35243;SDS011;37916;52.160;21.066;2023-02-12T00:24:28;2.83;;;1.10;;
35243;SDS011;37916;52.160;21.066;2023-02-12T00:34:29;1.80;;;0.90;;
35243;SDS011;37916;52.160;21.066;2023-02-12T00:44:29;3.15;;;1.08;;
35243;SDS011;37916;52.160;21.066;2023-02-12T00:54:30;1.75;;;0.52;;
35243;SDS011;37916;52.160;21.066;2023-02-12T01:04:31;2.65;;;0.80;;
35243;SDS011;37916;52.160;21.066;2023-02-12T01:14:32;2.85;;;0.57;;
35243;SDS011;37916;52.160;21.066;2023-02-12T01:24:33;2.85;;;0.50;;
35243;SDS011;37916;52.160;21.066;2023-02-12T01:34:33;0.70;;;0.50;;
35243;SDS011;37916;52.160;21.066;2023-02-12T01:44:35;2.85;;;0.73;;
35243;SDS011;37916;52.160;21.066;2023-02-12T02:04:41;1.95;;;0.65;;
35243;SDS011;37916;52.160;21.066;2023-02-12T02:14:45;0.68;;;0.43;;
35243;SDS011;37916;52.160;21.066;2023-02-12T02:55:20;1.35;;;0.60;;
35243;SDS011;37916;52.160;21.066;2023-02-12T03:05:28;1.50;;;0.45;;
35243;SDS011;37916;52.160;21.066;2023-02-12T03:15:38;0.88;;;0.52;;
35243;SDS011;37916;52.160;21.066;2023-02-12T03:25:54;1.48;;;0.60;;
35243;SDS011;37916;52.160;21.066;2023-02-12T03:36:01;0.82;;;0.43;;
35243;SDS011;37916;52.160;21.066;2023-02-12T03:56:43;2.22;;;0.63;;
35243;SDS011;37916;52.160;21.066;2023-02-12T04:06:54;1.17;;;0.40;;
35243;SDS011;37916;52.160;21.066;2023-02-12T04:27:34;1.13;;;0.55;;
35243;SDS011;37916;52.160;21.066;2023-02-12T04:37:52;0.52;;;0.40;;
35243;SDS011;37916;52.160;21.066;2023-02-12T04:47:59;1.88;;;0.77;;
35243;SDS011;37916;52.160;21.066;2023-02-12T04:58:00;0.57;;;0.50;;
35243;SDS011;37916;52.160;21.066;2023-02-12T05:08:01;2.40;;;0.73;;
35243;SDS011;37916;52.160;21.066;2023-02-12T05:18:02;1.77;;;0.70;;
35243;SDS011;37916;52.160;21.066;2023-02-12T05:28:02;3.15;;;0.88;;
35243;SDS011;37916;52.160;21.066;2023-02-12T05:38:03;2.47;;;0.70;;
35243;SDS011;37916;52.160;21.066;2023-02-12T05:48:04;1.75;;;1.10;;
35243;SDS011;37916;52.160;21.066;2023-02-12T05:58:05;3.03;;;0.77;;
35243;SDS011;37916;52.160;21.066;2023-02-12T06:08:05;2.58;;;0.80;;
35243;SDS011;37916;52.160;21.066;2023-02-12T06:18:06;1.75;;;0.80;;
35243;SDS011;37916;52.160;21.066;2023-02-12T06:28:06;1.88;;;0.95;;
35243;SDS011;37916;52.160;21.066;2023-02-12T06:38:07;2.17;;;0.80;;
35243;SDS011;37916;52.160;21.066;2023-02-12T06:48:08;2.97;;;1.02;;
35243;SDS011;37916;52.160;21.066;2023-02-12T06:58:09;2.83;;;1.23;;
35243;SDS011;37916;52.160;21.066;2023-02-12T07:08:10;1.98;;;1.00;;
35243;SDS011;37916;52.160;21.066;2023-02-12T07:18:10;2.30;;;1.27;;
35243;SDS011;37916;52.160;21.066;2023-02-12T07:28:11;2.13;;;0.80;;
35243;SDS011;37916;52.160;21.066;2023-02-12T07:38:12;2.35;;;1.10;;
35243;SDS011;37916;52.160;21.066;2023-02-12T07:48:13;2.35;;;1.08;;
35243;SDS011;37916;52.160;21.066;2023-02-12T07:58:13;1.42;;;1.00;;
35243;SDS011;37916;52.160;21.066;2023-02-12T08:08:14;2.03;;;0.90;;
35243;SDS011;37916;52.160;21.066;2023-02-12T08:18:15;4.28;;;0.95;;
35243;SDS011;37916;52.160;21.066;2023-02-12T08:28:15;2.33;;;1.02;;
35243;SDS011;37916;52.160;21.066;2023-02-12T08:38:16;2.50;;;1.30;;
35243;SDS011;37916;52.160;21.066;2023-02-12T08:48:16;2.58;;;1.34;;
35243;SDS011;37916;52.160;21.066;2023-02-12T08:58:25;2.97;;;1.48;;
35243;SDS011;37916;52.160;21.066;2023-02-12T09:08:44;4.20;;;1.55;;
35243;SDS011;37916;52.160;21.066;2023-02-12T09:18:45;3.67;;;1.90;;
35243;SDS011;37916;52.160;21.066;2023-02-12T09:28:48;4.07;;;2.17;;
35243;SDS011;37916;52.160;21.066;2023-02-12T09:38:49;3.40;;;2.00;;
